sensor_id;sensor_type;location;lat;lon;timestamp;P1;durP1;ratioP1;P2;durP2;ratioP2
34497;SDS011;20744;50.938;7.286;2024-01-30T00:02:02;14.65;;;9.57;;
34497;SDS011;20744;50.938;7.286;2024-01-30T00:04:29;15.77;;;9.73;;
34497;SDS011;20744;50.938;7.286;2024-01-30T00:06:56;15.23;;;9.30;;
34497;SDS011;20744;50.938;7.286;2024-01-30T00:09:24;13.52;;;8.93;;
34497;SDS011;20744;50.938;7.286;2024-01-30T00:11:53;12.45;;;8.88;;
34497;SDS011;20744;50.938;7.286;2024-01-30T00:14:20;15.32;;;9.10;;
34497;SDS011;20744;50.938;7.286;2024-01-30T00:16:48;17.58;;;9.63;;
34497;SDS011;20744;50.938;7.286;2024-01-30T00:19:15;14.65;;;9.13;;
34497;SDS011;20744;50.938;7.286;2024-01-30T00:21:43;13.48;;;8.88;;
34497;SDS011;20744;50.938;7.286;2024-01-30T00:24:10;19.38;;;9.68;;
34497;SDS011;20744;50.938;7.286;2024-01-30T00:26:37;15.27;;;9.25;;
34497;SDS011;20744;50.938;7.286;2024-01-30T00:29:06;14.40;;;9.00;;
34497;SDS011;20744;50.938;7.286;2024-01-30T00:31:34;14.45;;;9.48;;
34497;SDS011;20744;50.938;7.286;2024-01-30T00:34:02;16.27;;;9.13;;
34497;SDS011;20744;50.938;7.286;2024-01-30T00:36:29;13.48;;;8.93;;
34497;SDS011;20744;50.938;7.286;2024-01-30T00:38:56;15.65;;;8.98;;
34497;SDS011;20744;50.938;7.286;2024-01-30T00:41:24;16.25;;;9.50;;
34497;SDS011;20744;50.938;7.286;2024-01-30T00:43:51;15.93;;;9.60;;
34497;SDS011;20744;50.938;7.286;2024-01-30T00:46:20;15.07;;;9.40;;
34497;SDS011;20744;50.938;7.286;2024-01-30T00:48:48;15.45;;;9.40;;
34497;SDS011;20744;50.938;7.286;2024-01-30T00:51:15;13.73;;;9.38;;
34497;SDS011;20744;50.938;7.286;2024-01-30T00:53:42;14.70;;;9.15;;
34497;SDS011;20744;50.938;7.286;2024-01-30T00:56:10;17.27;;;9.48;;
34497;SDS011;20744;50.938;7.286;2024-01-30T00:58:37;18.15;;;9.43;;
34497;SDS011;20744;50.938;7.286;2024-01-30T01:01:05;15.73;;;8.88;;
34497;SDS011;20744;50.938;7.286;2024-01-30T01:03:34;15.25;;;8.98;;
34497;SDS011;20744;50.938;7.286;2024-01-30T01:06:02;18.58;;;9.70;;
34497;SDS011;20744;50.938;7.286;2024-01-30T01:08:29;15.50;;;9.90;;
34497;SDS011;20744;50.938;7.286;2024-01-30T01:10:56;15.82;;;9.82;;
34497;SDS011;20744;50.938;7.286;2024-01-30T01:13:24;14.82;;;9.15;;
34497;SDS011;20744;50.938;7.286;2024-01-30T01:15:51;20.58;;;10.40;;
34497;SDS011;20744;50.938;7.286;2024-01-30T01:18:18;14.63;;;9.80;;
34497;SDS011;20744;50.938;7.286;2024-01-30T01:20:47;18.88;;;9.43;;
34497;SDS011;20744;50.938;7.286;2024-01-30T01:23:14;15.90;;;9.52;;
34497;SDS011;20744;50.938;7.286;2024-01-30T01:25:42;20.13;;;10.57;;
34497;SDS011;20744;50.938;7.286;2024-01-30T01:28:09;17.63;;;9.90;;
34497;SDS011;20744;50.938;7.286;2024-01-30T01:30:36;15.57;;;9.10;;
34497;SDS011;20744;50.938;7.286;2024-01-30T01:33:04;16.45;;;9.88;;
34497;SDS011;20744;50.938;7.286;2024-01-30T01:35:31;13.13;;;9.27;;
34497;SDS011;20744;50.938;7.286;2024-01-30T01:38:00;13.98;;;8.80;;
34497;SDS011;20744;50.938;7.286;2024-01-30T01:40:27;16.67;;;9.15;;
34497;SDS011;20744;50.938;7.286;2024-01-30T01:42:55;16.40;;;10.18;;
34497;SDS011;20744;50.938;7.286;2024-01-30T01:45:22;18.35;;;9.88;;
34497;SDS011;20744;50.938;7.286;2024-01-30T01:47:50;19.67;;;10.13;;
34497;SDS011;20744;50.938;7.286;2024-01-30T01:50:17;16.63;;;9.70;;
34497;SDS011;20744;50.938;7.286;2024-01-30T01:52:46;17.20;;;10.45;;
34497;SDS011;20744;50.938;7.286;2024-01-30T01:55:15;17.00;;;10.20;;
34497;SDS011;20744;50.938;7.286;2024-01-30T01:57:46;18.13;;;10.45;;
34497;SDS011;20744;50.938;7.286;2024-01-30T02:00:13;15.60;;;10.27;;
34497;SDS011;20744;50.938;7.286;2024-01-30T02:02:41;15.10;;;9.65;;
34497;SDS011;20744;50.938;7.286;2024-01-30T02:05:11;15.73;;;10.13;;
34497;SDS011;20744;50.938;7.286;2024-01-30T02:07:38;16.80;;;9.43;;
34497;SDS011;20744;50.938;7.286;2024-01-30T02:10:06;12.75;;;8.90;;
34497;SDS011;20744;50.938;7.286;2024-01-30T02:12:35;18.63;;;10.13;;
34497;SDS011;20744;50.938;7.286;2024-01-30T02:15:03;19.23;;;9.50;;
34497;SDS011;20744;50.938;7.286;2024-01-30T02:17:32;17.92;;;9.85;;
34497;SDS011;20744;50.938;7.286;2024-01-30T02:20:00;18.15;;;10.52;;
34497;SDS011;20744;50.938;7.286;2024-01-30T02:22:29;14.88;;;9.40;;
34497;SDS011;20744;50.938;7.286;2024-01-30T02:24:57;16.85;;;9.15;;
34497;SDS011;20744;50.938;7.286;2024-01-30T02:27:24;15.50;;;10.40;;
34497;SDS011;20744;50.938;7.286;2024-01-30T02:29:51;16.65;;;10.10;;
34497;SDS011;20744;50.938;7.286;2024-01-30T02:32:18;15.88;;;10.73;;
34497;SDS011;20744;50.938;7.286;2024-01-30T02:34:46;15.60;;;9.95;;
34497;SDS011;20744;50.938;7.286;2024-01-30T02:37:13;15.25;;;10.18;;
34497;SDS011;20744;50.938;7.286;2024-01-30T02:39:42;16.08;;;9.90;;
34497;SDS011;20744;50.938;7.286;2024-01-30T02:42:09;17.67;;;10.30;;
34497;SDS011;20744;50.938;7.286;2024-01-30T02:44:36;19.95;;;10.63;;
34497;SDS011;20744;50.938;7.286;2024-01-30T02:47:04;17.15;;;10.98;;
34497;SDS011;20744;50.938;7.286;2024-01-30T02:49:31;16.40;;;11.02;;
34497;SDS011;20744;50.938;7.286;2024-01-30T02:51:59;15.32;;;10.07;;
34497;SDS011;20744;50.938;7.286;2024-01-30T02:54:26;18.20;;;10.23;;
34497;SDS011;20744;50.938;7.286;2024-01-30T02:56:57;16.35;;;10.45;;
34497;SDS011;20744;50.938;7.286;2024-01-30T02:59:24;20.20;;;9.68;;
34497;SDS011;20744;50.938;7.286;2024-01-30T03:01:51;16.13;;;9.55;;
34497;SDS011;20744;50.938;7.286;2024-01-30T03:04:19;14.20;;;10.13;;
34497;SDS011;20744;50.938;7.286;2024-01-30T03:06:46;16.52;;;9.45;;
34497;SDS011;20744;50.938;7.286;2024-01-30T03:09:15;16.65;;;10.50;;
34497;SDS011;20744;50.938;7.286;2024-01-30T03:11:42;20.05;;;9.73;;
34497;SDS011;20744;50.938;7.286;2024-01-30T03:14:11;17.60;;;9.90;;
34497;SDS011;20744;50.938;7.286;2024-01-30T03:16:38;16.38;;;9.68;;
34497;SDS011;20744;50.938;7.286;2024-01-30T03:19:06;19.70;;;10.20;;
34497;SDS011;20744;50.938;7.286;2024-01-30T03:21:34;15.48;;;10.07;;
34497;SDS011;20744;50.938;7.286;2024-01-30T03:24:01;15.23;;;9.82;;
34497;SDS011;20744;50.938;7.286;2024-01-30T03:26:28;16.92;;;9.60;;
34497;SDS011;20744;50.938;7.286;2024-01-30T03:28:56;19.73;;;9.95;;
34497;SDS011;20744;50.938;7.286;2024-01-30T03:31:24;17.90;;;10.20;;
34497;SDS011;20744;50.938;7.286;2024-01-30T03:33:51;14.90;;;9.40;;
34497;SDS011;20744;50.938;7.286;2024-01-30T03:36:18;17.52;;;9.88;;
34497;SDS011;20744;50.938;7.286;2024-01-30T03:38:45;18.30;;;10.43;;
34497;SDS011;20744;50.938;7.286;2024-01-30T03:41:13;16.65;;;9.43;;
34497;SDS011;20744;50.938;7.286;2024-01-30T03:43:40;16.17;;;10.05;;
34497;SDS011;20744;50.938;7.286;2024-01-30T03:46:08;16.55;;;10.10;;
34497;SDS011;20744;50.938;7.286;2024-01-30T03:48:36;17.80;;;9.88;;
34497;SDS011;20744;50.938;7.286;2024-01-30T03:51:04;14.80;;;9.15;;
34497;SDS011;20744;50.938;7.286;2024-01-30T03:53:32;21.95;;;10.18;;
34497;SDS011;20744;50.938;7.286;2024-01-30T03:55:59;19.45;;;9.65;;
34497;SDS011;20744;50.938;7.286;2024-01-30T03:58:29;16.58;;;9.75;;
34497;SDS011;20744;50.938;7.286;2024-01-30T04:00:57;18.27;;;10.15;;
34497;SDS011;20744;50.938;7.286;2024-01-30T04:03:24;15.55;;;9.70;;
34497;SDS011;20744;50.938;7.286;2024-01-30T04:05:53;20.05;;;10.10;;
34497;SDS011;20744;50.938;7.286;2024-01-30T04:08:20;17.85;;;9.65;;
34497;SDS011;20744;50.938;7.286;2024-01-30T04:10:47;14.35;;;9.45;;
34497;SDS011;20744;50.938;7.286;2024-01-30T04:13:15;14.80;;;9.63;;
34497;SDS011;20744;50.938;7.286;2024-01-30T04:15:42;15.07;;;9.95;;
34497;SDS011;20744;50.938;7.286;2024-01-30T04:18:10;18.55;;;10.85;;
34497;SDS011;20744;50.938;7.286;2024-01-30T04:20:37;16.90;;;10.50;;
34497;SDS011;20744;50.938;7.286;2024-01-30T04:23:06;16.00;;;9.63;;
34497;SDS011;20744;50.938;7.286;2024-01-30T04:25:33;16.60;;;9.60;;
34497;SDS011;20744;50.938;7.286;2024-01-30T04:28:00;16.60;;;9.90;;
34497;SDS011;20744;50.938;7.286;2024-01-30T04:30:28;16.30;;;10.45;;
34497;SDS011;20744;50.938;7.286;2024-01-30T04:32:55;20.98;;;10.63;;
34497;SDS011;20744;50.938;7.286;2024-01-30T04:35:22;17.77;;;9.68;;
34497;SDS011;20744;50.938;7.286;2024-01-30T04:37:51;12.95;;;9.00;;
34497;SDS011;20744;50.938;7.286;2024-01-30T04:40:20;15.48;;;9.80;;
34497;SDS011;20744;50.938;7.286;2024-01-30T04:42:47;15.77;;;9.35;;
34497;SDS011;20744;50.938;7.286;2024-01-30T04:45:15;17.30;;;9.93;;
34497;SDS011;20744;50.938;7.286;2024-01-30T04:47:42;19.65;;;10.05;;
34497;SDS011;20744;50.938;7.286;2024-01-30T04:50:09;16.10;;;10.05;;
34497;SDS011;20744;50.938;7.286;2024-01-30T04:52:37;14.60;;;9.65;;
34497;SDS011;20744;50.938;7.286;2024-01-30T04:55:05;17.88;;;9.30;;
34497;SDS011;20744;50.938;7.286;2024-01-30T04:57:33;16.70;;;10.15;;
34497;SDS011;20744;50.938;7.286;2024-01-30T05:00:01;15.85;;;9.75;;
34497;SDS011;20744;50.938;7.286;2024-01-30T05:02:30;17.30;;;9.85;;
34497;SDS011;20744;50.938;7.286;2024-01-30T05:04:57;16.60;;;9.65;;
34497;SDS011;20744;50.938;7.286;2024-01-30T05:07:25;18.83;;;9.13;;
34497;SDS011;20744;50.938;7.286;2024-01-30T05:09:52;21.50;;;10.13;;
34497;SDS011;20744;50.938;7.286;2024-01-30T05:12:20;18.52;;;10.50;;
34497;SDS011;20744;50.938;7.286;2024-01-30T05:14:49;15.90;;;10.55;;
34497;SDS011;20744;50.938;7.286;2024-01-30T05:17:16;16.52;;;9.93;;
34497;SDS011;20744;50.938;7.286;2024-01-30T05:19:43;18.70;;;9.93;;
34497;SDS011;20744;50.938;7.286;2024-01-30T05:22:11;17.17;;;10.15;;
34497;SDS011;20744;50.938;7.286;2024-01-30T05:24:40;18.55;;;9.55;;
34497;SDS011;20744;50.938;7.286;2024-01-30T05:27:08;13.13;;;8.73;;
34497;SDS011;20744;50.938;7.286;2024-01-30T05:29:35;14.07;;;9.13;;
34497;SDS011;20744;50.938;7.286;2024-01-30T05:32:04;18.38;;;9.68;;
34497;SDS011;20744;50.938;7.286;2024-01-30T05:34:31;13.05;;;9.25;;
34497;SDS011;20744;50.938;7.286;2024-01-30T05:36:59;18.45;;;9.70;;
34497;SDS011;20744;50.938;7.286;2024-01-30T05:39:26;16.90;;;9.70;;
34497;SDS011;20744;50.938;7.286;2024-01-30T05:41:53;16.15;;;9.48;;
34497;SDS011;20744;50.938;7.286;2024-01-30T05:44:21;17.20;;;9.75;;
34497;SDS011;20744;50.938;7.286;2024-01-30T05:46:48;19.50;;;9.60;;
34497;SDS011;20744;50.938;7.286;2024-01-30T05:49:17;13.90;;;9.18;;
34497;SDS011;20744;50.938;7.286;2024-01-30T05:51:44;23.15;;;10.43;;
34497;SDS011;20744;50.938;7.286;2024-01-30T05:54:11;14.25;;;8.77;;
34497;SDS011;20744;50.938;7.286;2024-01-30T05:56:39;17.35;;;8.95;;
34497;SDS011;20744;50.938;7.286;2024-01-30T05:59:06;19.90;;;9.85;;
34497;SDS011;20744;50.938;7.286;2024-01-30T06:01:33;17.95;;;10.73;;
34497;SDS011;20744;50.938;7.286;2024-01-30T06:04:01;16.80;;;10.20;;
34497;SDS011;20744;50.938;7.286;2024-01-30T06:06:29;16.58;;;10.00;;
34497;SDS011;20744;50.938;7.286;2024-01-30T06:08:56;16.08;;;10.02;;
34497;SDS011;20744;50.938;7.286;2024-01-30T06:11:24;15.32;;;10.20;;
34497;SDS011;20744;50.938;7.286;2024-01-30T06:13:52;21.05;;;11.48;;
34497;SDS011;20744;50.938;7.286;2024-01-30T06:16:19;14.93;;;10.27;;
34497;SDS011;20744;50.938;7.286;2024-01-30T06:18:47;18.23;;;9.63;;
34497;SDS011;20744;50.938;7.286;2024-01-30T06:21:15;15.88;;;9.90;;
34497;SDS011;20744;50.938;7.286;2024-01-30T06:23:43;19.83;;;10.60;;
34497;SDS011;20744;50.938;7.286;2024-01-30T06:26:11;16.10;;;9.57;;
34497;SDS011;20744;50.938;7.286;2024-01-30T06:28:38;13.38;;;8.90;;
34497;SDS011;20744;50.938;7.286;2024-01-30T06:31:05;18.90;;;10.68;;
34497;SDS011;20744;50.938;7.286;2024-01-30T06:33:32;16.33;;;10.32;;
34497;SDS011;20744;50.938;7.286;2024-01-30T06:36:00;17.55;;;9.65;;
34497;SDS011;20744;50.938;7.286;2024-01-30T06:38:27;14.82;;;9.90;;
34497;SDS011;20744;50.938;7.286;2024-01-30T06:40:56;16.88;;;9.75;;
34497;SDS011;20744;50.938;7.286;2024-01-30T06:43:23;17.60;;;9.43;;
34497;SDS011;20744;50.938;7.286;2024-01-30T06:45:50;15.98;;;10.43;;
34497;SDS011;20744;50.938;7.286;2024-01-30T06:48:18;14.05;;;9.27;;
34497;SDS011;20744;50.938;7.286;2024-01-30T06:50:45;14.55;;;9.15;;
34497;SDS011;20744;50.938;7.286;2024-01-30T06:53:14;14.88;;;9.85;;
34497;SDS011;20744;50.938;7.286;2024-01-30T06:55:41;23.38;;;10.90;;
34497;SDS011;20744;50.938;7.286;2024-01-30T06:58:10;18.48;;;10.55;;
34497;SDS011;20744;50.938;7.286;2024-01-30T07:00:37;19.45;;;10.60;;
34497;SDS011;20744;50.938;7.286;2024-01-30T07:03:05;15.32;;;10.45;;
34497;SDS011;20744;50.938;7.286;2024-01-30T07:05:32;17.38;;;10.63;;
34497;SDS011;20744;50.938;7.286;2024-01-30T07:07:59;18.52;;;10.45;;
34497;SDS011;20744;50.938;7.286;2024-01-30T07:10:26;16.27;;;10.60;;
34497;SDS011;20744;50.938;7.286;2024-01-30T07:12:54;16.55;;;10.02;;
34497;SDS011;20744;50.938;7.286;2024-01-30T07:15:22;16.08;;;10.13;;
34497;SDS011;20744;50.938;7.286;2024-01-30T07:17:50;19.25;;;10.95;;
34497;SDS011;20744;50.938;7.286;2024-01-30T07:20:17;16.55;;;11.18;;
34497;SDS011;20744;50.938;7.286;2024-01-30T07:22:45;16.92;;;11.23;;
34497;SDS011;20744;50.938;7.286;2024-01-30T07:25:12;17.17;;;10.85;;
34497;SDS011;20744;50.938;7.286;2024-01-30T07:27:40;13.02;;;9.27;;
34497;SDS011;20744;50.938;7.286;2024-01-30T07:30:07;18.75;;;10.70;;
34497;SDS011;20744;50.938;7.286;2024-01-30T07:32:36;17.20;;;9.63;;
34497;SDS011;20744;50.938;7.286;2024-01-30T07:35:04;18.17;;;10.10;;
34497;SDS011;20744;50.938;7.286;2024-01-30T07:37:31;27.52;;;10.35;;
34497;SDS011;20744;50.938;7.286;2024-01-30T07:39:59;15.70;;;10.23;;
34497;SDS011;20744;50.938;7.286;2024-01-30T07:42:26;16.70;;;10.32;;
34497;SDS011;20744;50.938;7.286;2024-01-30T07:44:53;19.70;;;10.15;;
34497;SDS011;20744;50.938;7.286;2024-01-30T07:47:21;14.85;;;9.35;;
34497;SDS011;20744;50.938;7.286;2024-01-30T07:49:49;19.25;;;9.75;;
34497;SDS011;20744;50.938;7.286;2024-01-30T07:52:17;17.05;;;9.63;;
34497;SDS011;20744;50.938;7.286;2024-01-30T07:54:45;14.25;;;9.55;;
34497;SDS011;20744;50.938;7.286;2024-01-30T07:57:12;19.83;;;10.18;;
34497;SDS011;20744;50.938;7.286;2024-01-30T07:59:41;16.63;;;10.07;;
34497;SDS011;20744;50.938;7.286;2024-01-30T08:02:09;18.63;;;9.13;;
34497;SDS011;20744;50.938;7.286;2024-01-30T08:04:36;15.52;;;9.98;;
34497;SDS011;20744;50.938;7.286;2024-01-30T08:07:05;19.38;;;9.10;;
34497;SDS011;20744;50.938;7.286;2024-01-30T08:09:32;19.63;;;9.63;;
34497;SDS011;20744;50.938;7.286;2024-01-30T08:11:59;15.77;;;9.82;;
34497;SDS011;20744;50.938;7.286;2024-01-30T08:14:27;17.92;;;9.15;;
34497;SDS011;20744;50.938;7.286;2024-01-30T08:16:54;15.35;;;8.77;;
34497;SDS011;20744;50.938;7.286;2024-01-30T08:19:21;15.20;;;9.05;;
34497;SDS011;20744;50.938;7.286;2024-01-30T08:21:49;18.17;;;10.05;;
34497;SDS011;20744;50.938;7.286;2024-01-30T08:24:17;17.25;;;9.70;;
34497;SDS011;20744;50.938;7.286;2024-01-30T08:26:45;13.07;;;9.23;;
34497;SDS011;20744;50.938;7.286;2024-01-30T08:29:12;16.80;;;10.02;;
34497;SDS011;20744;50.938;7.286;2024-01-30T08:31:39;18.00;;;9.90;;
34497;SDS011;20744;50.938;7.286;2024-01-30T08:34:06;16.15;;;10.15;;
34497;SDS011;20744;50.938;7.286;2024-01-30T08:36:34;19.73;;;9.32;;
34497;SDS011;20744;50.938;7.286;2024-01-30T08:39:01;20.20;;;9.60;;
34497;SDS011;20744;50.938;7.286;2024-01-30T08:41:34;17.15;;;9.50;;
34497;SDS011;20744;50.938;7.286;2024-01-30T08:44:02;15.18;;;9.10;;
34497;SDS011;20744;50.938;7.286;2024-01-30T08:46:29;22.25;;;9.32;;
34497;SDS011;20744;50.938;7.286;2024-01-30T08:48:57;22.10;;;10.40;;
34497;SDS011;20744;50.938;7.286;2024-01-30T08:51:24;20.98;;;9.32;;
34497;SDS011;20744;50.938;7.286;2024-01-30T08:53:51;15.05;;;9.05;;
34497;SDS011;20744;50.938;7.286;2024-01-30T08:56:19;12.77;;;8.73;;
34497;SDS011;20744;50.938;7.286;2024-01-30T08:58:47;21.58;;;9.70;;
34497;SDS011;20744;50.938;7.286;2024-01-30T09:01:17;15.60;;;9.23;;
34497;SDS011;20744;50.938;7.286;2024-01-30T09:03:44;14.23;;;8.45;;
34497;SDS011;20744;50.938;7.286;2024-01-30T09:06:11;14.38;;;8.90;;
34497;SDS011;20744;50.938;7.286;2024-01-30T09:08:39;14.38;;;8.20;;
34497;SDS011;20744;50.938;7.286;2024-01-30T09:11:08;13.95;;;8.82;;
34497;SDS011;20744;50.938;7.286;2024-01-30T09:13:35;22.40;;;9.02;;
34497;SDS011;20744;50.938;7.286;2024-01-30T09:16:05;12.95;;;8.25;;
34497;SDS011;20744;50.938;7.286;2024-01-30T09:18:32;13.15;;;8.25;;
34497;SDS011;20744;50.938;7.286;2024-01-30T09:21:00;15.13;;;9.18;;
34497;SDS011;20744;50.938;7.286;2024-01-30T09:23:27;20.95;;;9.50;;
34497;SDS011;20744;50.938;7.286;2024-01-30T09:25:55;16.23;;;9.25;;
34497;SDS011;20744;50.938;7.286;2024-01-30T09:28:22;13.10;;;8.45;;
34497;SDS011;20744;50.938;7.286;2024-01-30T09:30:49;15.25;;;8.82;;
34497;SDS011;20744;50.938;7.286;2024-01-30T09:33:18;15.80;;;9.70;;
34497;SDS011;20744;50.938;7.286;2024-01-30T09:35:46;15.02;;;9.35;;
34497;SDS011;20744;50.938;7.286;2024-01-30T09:38:13;16.20;;;8.70;;
34497;SDS011;20744;50.938;7.286;2024-01-30T09:40:40;17.20;;;8.30;;
34497;SDS011;20744;50.938;7.286;2024-01-30T09:43:08;18.48;;;10.65;;
34497;SDS011;20744;50.938;7.286;2024-01-30T09:45:38;24.67;;;10.25;;
34497;SDS011;20744;50.938;7.286;2024-01-30T09:48:07;17.73;;;9.45;;
34497;SDS011;20744;50.938;7.286;2024-01-30T09:50:37;15.52;;;9.55;;
34497;SDS011;20744;50.938;7.286;2024-01-30T09:53:04;16.10;;;8.50;;
34497;SDS011;20744;50.938;7.286;2024-01-30T09:55:34;14.77;;;8.50;;
34497;SDS011;20744;50.938;7.286;2024-01-30T09:58:02;16.75;;;8.85;;
34497;SDS011;20744;50.938;7.286;2024-01-30T10:00:29;12.95;;;7.55;;
34497;SDS011;20744;50.938;7.286;2024-01-30T10:02:57;19.10;;;8.90;;
34497;SDS011;20744;50.938;7.286;2024-01-30T10:05:25;18.88;;;9.57;;
34497;SDS011;20744;50.938;7.286;2024-01-30T10:07:55;14.30;;;9.60;;
34497;SDS011;20744;50.938;7.286;2024-01-30T10:10:24;15.20;;;8.50;;
34497;SDS011;20744;50.938;7.286;2024-01-30T10:12:51;15.32;;;9.88;;
34497;SDS011;20744;50.938;7.286;2024-01-30T10:15:18;18.63;;;9.35;;
34497;SDS011;20744;50.938;7.286;2024-01-30T10:17:46;17.13;;;9.82;;
34497;SDS011;20744;50.938;7.286;2024-01-30T10:20:16;18.17;;;10.00;;
34497;SDS011;20744;50.938;7.286;2024-01-30T10:22:44;17.75;;;8.85;;
34497;SDS011;20744;50.938;7.286;2024-01-30T10:25:14;19.30;;;9.77;;
34497;SDS011;20744;50.938;7.286;2024-01-30T10:27:41;17.40;;;10.85;;
34497;SDS011;20744;50.938;7.286;2024-01-30T10:30:09;15.18;;;9.65;;
34497;SDS011;20744;50.938;7.286;2024-01-30T10:32:36;18.20;;;9.75;;
34497;SDS011;20744;50.938;7.286;2024-01-30T10:35:04;17.02;;;10.07;;
34497;SDS011;20744;50.938;7.286;2024-01-30T10:37:31;15.48;;;8.88;;
34497;SDS011;20744;50.938;7.286;2024-01-30T10:39:59;16.30;;;8.88;;
34497;SDS011;20744;50.938;7.286;2024-01-30T10:42:31;16.58;;;8.13;;
34497;SDS011;20744;50.938;7.286;2024-01-30T10:44:59;12.65;;;7.65;;
34497;SDS011;20744;50.938;7.286;2024-01-30T10:47:28;16.10;;;8.48;;
34497;SDS011;20744;50.938;7.286;2024-01-30T10:49:58;15.27;;;8.07;;
34497;SDS011;20744;50.938;7.286;2024-01-30T10:52:28;15.95;;;8.68;;
34497;SDS011;20744;50.938;7.286;2024-01-30T10:54:56;13.18;;;8.00;;
34497;SDS011;20744;50.938;7.286;2024-01-30T10:57:23;10.70;;;7.43;;
34497;SDS011;20744;50.938;7.286;2024-01-30T10:59:52;16.45;;;8.30;;
34497;SDS011;20744;50.938;7.286;2024-01-30T11:02:20;11.05;;;7.38;;
34497;SDS011;20744;50.938;7.286;2024-01-30T11:04:50;15.48;;;7.43;;
34497;SDS011;20744;50.938;7.286;2024-01-30T11:07:23;16.65;;;8.80;;
34497;SDS011;20744;50.938;7.286;2024-01-30T11:09:51;18.48;;;9.38;;
34497;SDS011;20744;50.938;7.286;2024-01-30T11:12:22;13.35;;;8.00;;
34497;SDS011;20744;50.938;7.286;2024-01-30T11:14:50;17.00;;;9.35;;
34497;SDS011;20744;50.938;7.286;2024-01-30T11:17:19;14.57;;;9.18;;
34497;SDS011;20744;50.938;7.286;2024-01-30T11:19:46;14.98;;;9.35;;
34497;SDS011;20744;50.938;7.286;2024-01-30T11:22:13;14.52;;;6.68;;
34497;SDS011;20744;50.938;7.286;2024-01-30T11:24:41;18.92;;;8.57;;
34497;SDS011;20744;50.938;7.286;2024-01-30T11:27:08;13.45;;;8.63;;
34497;SDS011;20744;50.938;7.286;2024-01-30T11:29:36;17.55;;;7.57;;
34497;SDS011;20744;50.938;7.286;2024-01-30T11:32:04;12.60;;;6.93;;
34497;SDS011;20744;50.938;7.286;2024-01-30T11:34:33;11.77;;;6.78;;
34497;SDS011;20744;50.938;7.286;2024-01-30T11:37:03;14.55;;;7.20;;
34497;SDS011;20744;50.938;7.286;2024-01-30T11:39:33;11.43;;;6.72;;
34497;SDS011;20744;50.938;7.286;2024-01-30T11:42:03;11.60;;;6.20;;
34497;SDS011;20744;50.938;7.286;2024-01-30T11:44:31;11.90;;;6.68;;
34497;SDS011;20744;50.938;7.286;2024-01-30T11:46:59;10.07;;;6.07;;
34497;SDS011;20744;50.938;7.286;2024-01-30T11:49:28;12.82;;;6.20;;
34497;SDS011;20744;50.938;7.286;2024-01-30T11:51:57;18.17;;;6.55;;
34497;SDS011;20744;50.938;7.286;2024-01-30T11:54:24;10.13;;;6.00;;
34497;SDS011;20744;50.938;7.286;2024-01-30T11:56:51;12.85;;;6.30;;
34497;SDS011;20744;50.938;7.286;2024-01-30T11:59:19;14.98;;;7.55;;
34497;SDS011;20744;50.938;7.286;2024-01-30T12:01:46;17.63;;;7.82;;
34497;SDS011;20744;50.938;7.286;2024-01-30T12:04:14;13.40;;;7.70;;
34497;SDS011;20744;50.938;7.286;2024-01-30T12:06:41;15.57;;;7.03;;
34497;SDS011;20744;50.938;7.286;2024-01-30T12:09:10;11.38;;;5.97;;
34497;SDS011;20744;50.938;7.286;2024-01-30T12:11:44;12.82;;;6.28;;
34497;SDS011;20744;50.938;7.286;2024-01-30T12:14:12;13.75;;;6.47;;
34497;SDS011;20744;50.938;7.286;2024-01-30T12:16:40;16.35;;;6.38;;
34497;SDS011;20744;50.938;7.286;2024-01-30T12:19:10;15.52;;;6.07;;
34497;SDS011;20744;50.938;7.286;2024-01-30T12:21:39;12.43;;;5.68;;
34497;SDS011;20744;50.938;7.286;2024-01-30T12:24:06;12.07;;;5.93;;
34497;SDS011;20744;50.938;7.286;2024-01-30T12:26:35;12.18;;;6.10;;
34497;SDS011;20744;50.938;7.286;2024-01-30T12:29:03;12.98;;;5.45;;
34497;SDS011;20744;50.938;7.286;2024-01-30T12:31:31;14.50;;;6.72;;
34497;SDS011;20744;50.938;7.286;2024-01-30T12:33:59;14.40;;;6.10;;
34497;SDS011;20744;50.938;7.286;2024-01-30T12:36:27;12.52;;;6.18;;
34497;SDS011;20744;50.938;7.286;2024-01-30T12:38:56;21.08;;;7.53;;
34497;SDS011;20744;50.938;7.286;2024-01-30T12:41:24;9.35;;;5.90;;
34497;SDS011;20744;50.938;7.286;2024-01-30T12:43:55;10.82;;;6.10;;
34497;SDS011;20744;50.938;7.286;2024-01-30T12:46:33;10.10;;;5.57;;
34497;SDS011;20744;50.938;7.286;2024-01-30T12:49:01;9.95;;;6.13;;
34497;SDS011;20744;50.938;7.286;2024-01-30T12:51:28;8.77;;;5.65;;
34497;SDS011;20744;50.938;7.286;2024-01-30T12:53:56;10.45;;;5.90;;
34497;SDS011;20744;50.938;7.286;2024-01-30T12:56:23;10.50;;;5.70;;
34497;SDS011;20744;50.938;7.286;2024-01-30T12:58:50;11.65;;;5.72;;
34497;SDS011;20744;50.938;7.286;2024-01-30T13:01:19;10.15;;;5.70;;
34497;SDS011;20744;50.938;7.286;2024-01-30T13:03:47;13.23;;;5.82;;
34497;SDS011;20744;50.938;7.286;2024-01-30T13:06:14;11.80;;;5.78;;
34497;SDS011;20744;50.938;7.286;2024-01-30T13:08:41;12.10;;;5.80;;
34497;SDS011;20744;50.938;7.286;2024-01-30T13:11:08;9.48;;;5.28;;
34497;SDS011;20744;50.938;7.286;2024-01-30T13:13:37;13.50;;;5.85;;
34497;SDS011;20744;50.938;7.286;2024-01-30T13:16:05;8.80;;;5.75;;
34497;SDS011;20744;50.938;7.286;2024-01-30T13:18:33;11.32;;;5.60;;
34497;SDS011;20744;50.938;7.286;2024-01-30T13:21:01;9.98;;;5.63;;
34497;SDS011;20744;50.938;7.286;2024-01-30T13:23:28;10.57;;;5.45;;
34497;SDS011;20744;50.938;7.286;2024-01-30T13:25:55;11.50;;;5.47;;
34497;SDS011;20744;50.938;7.286;2024-01-30T13:28:23;12.15;;;5.20;;
34497;SDS011;20744;50.938;7.286;2024-01-30T13:30:51;14.40;;;5.55;;
34497;SDS011;20744;50.938;7.286;2024-01-30T13:33:18;9.57;;;4.65;;
34497;SDS011;20744;50.938;7.286;2024-01-30T13:35:47;10.65;;;5.18;;
34497;SDS011;20744;50.938;7.286;2024-01-30T13:38:15;7.85;;;5.07;;
34497;SDS011;20744;50.938;7.286;2024-01-30T13:40:42;18.70;;;5.80;;
34497;SDS011;20744;50.938;7.286;2024-01-30T13:43:09;11.05;;;5.28;;
34497;SDS011;20744;50.938;7.286;2024-01-30T13:45:37;9.63;;;4.70;;
34497;SDS011;20744;50.938;7.286;2024-01-30T13:48:04;9.93;;;4.45;;
34497;SDS011;20744;50.938;7.286;2024-01-30T13:50:32;12.15;;;5.38;;
34497;SDS011;20744;50.938;7.286;2024-01-30T13:53:01;8.98;;;4.88;;
34497;SDS011;20744;50.938;7.286;2024-01-30T13:55:29;13.18;;;5.30;;
34497;SDS011;20744;50.938;7.286;2024-01-30T13:57:56;11.90;;;4.60;;
34497;SDS011;20744;50.938;7.286;2024-01-30T14:00:23;8.65;;;4.43;;
34497;SDS011;20744;50.938;7.286;2024-01-30T14:02:51;7.68;;;4.88;;
34497;SDS011;20744;50.938;7.286;2024-01-30T14:05:19;10.27;;;4.97;;
34497;SDS011;20744;50.938;7.286;2024-01-30T14:07:47;10.68;;;4.90;;
34497;SDS011;20744;50.938;7.286;2024-01-30T14:10:19;11.73;;;5.18;;
34497;SDS011;20744;50.938;7.286;2024-01-30T14:12:46;10.85;;;5.03;;
34497;SDS011;20744;50.938;7.286;2024-01-30T14:15:14;8.05;;;4.45;;
34497;SDS011;20744;50.938;7.286;2024-01-30T14:17:43;12.65;;;5.22;;
34497;SDS011;20744;50.938;7.286;2024-01-30T14:20:13;15.77;;;5.32;;
34497;SDS011;20744;50.938;7.286;2024-01-30T14:22:41;16.02;;;5.10;;
34497;SDS011;20744;50.938;7.286;2024-01-30T14:25:09;11.60;;;5.38;;
34497;SDS011;20744;50.938;7.286;2024-01-30T14:27:38;10.80;;;5.18;;
34497;SDS011;20744;50.938;7.286;2024-01-30T14:30:08;9.20;;;4.93;;
34497;SDS011;20744;50.938;7.286;2024-01-30T14:32:37;11.20;;;4.95;;
34497;SDS011;20744;50.938;7.286;2024-01-30T14:35:05;10.90;;;5.10;;